Time;durP1;ratioP1;P1;durP2;ratioP2;P2;SDS_P1;SDS_P2;PMS_P1;PMS_P2;Temp;Humidity;BMP_temperature;BMP_pressure;BME280_temperature;BME280_humidity;BME280_pressure;Samples;Min_cycle;Max_cycle;Signal;HPM_P1;HPM_P2
2023/10/31 00:01:32;;;;;;;1.23;1.13;;;16.80;76.60;15.80;94902.00;;;;5035085;28;20252;-77
2023/10/31 00:03:59;;;;;;;1.17;1.07;;;16.80;76.90;15.80;94902.00;;;;5017744;28;20214;-77
2023/10/31 00:06:27;;;;;;;1.20;1.20;;;16.80;77.00;15.80;94903.00;;;;5035431;28;20212;-78
2023/10/31 00:08:55;;;;;;;1.30;1.20;;;16.70;76.90;15.80;94900.00;;;;5017516;28;20225;-77
2023/10/31 00:11:22;;;;;;;1.27;1.20;;;16.70;76.90;15.70;94913.00;;;;5017095;28;20630;-78
2023/10/31 00:13:49;;;;;;;1.17;1.10;;;16.70;77.10;15.70;94922.00;;;;5017007;28;20205;-76
2023/10/31 00:16:16;;;;;;;1.50;1.40;;;16.70;77.00;15.60;94921.00;;;;5017634;28;20205;-77
2023/10/31 00:18:45;;;;;;;1.20;0.90;;;16.60;76.90;15.60;94921.00;;;;5018187;28;20594;-77
2023/10/31 00:21:12;;;;;;;1.30;1.03;;;16.60;77.00;15.60;94919.00;;;;5034513;28;20587;-78
2023/10/31 00:23:45;;;;;;;1.00;1.00;;;16.60;77.10;15.50;94923.00;;;;5014292;28;20210;-79
2023/10/31 00:26:12;;;;;;;0.93;0.93;;;16.50;77.40;15.50;94926.00;;;;5015037;28;20210;-77
2023/10/31 00:28:39;;;;;;;1.20;0.80;;;16.50;77.40;15.50;94925.00;;;;5012591;28;20814;-77
2023/10/31 00:31:07;;;;;;;1.50;1.10;;;16.50;77.50;15.50;94929.00;;;;5014682;28;20285;-77
2023/10/31 00:33:35;;;;;;;1.00;0.90;;;16.50;77.60;15.40;94931.00;;;;5011857;28;20284;-77
2023/10/31 00:36:05;;;;;;;0.80;0.77;;;16.40;77.70;15.40;94926.00;;;;5015247;28;20201;-77
2023/10/31 00:38:33;;;;;;;1.07;0.90;;;16.40;78.00;15.40;94934.00;;;;5032419;28;20260;-77
2023/10/31 00:41:00;;;;;;;0.70;0.70;;;16.40;78.00;15.40;94941.00;;;;5032546;28;20201;-77
2023/10/31 00:43:27;;;;;;;0.70;0.70;;;16.40;78.00;15.40;94927.00;;;;5015856;28;20209;-77
2023/10/31 00:45:54;;;;;;;0.73;0.73;;;16.30;78.00;15.40;94930.00;;;;5032758;28;20193;-77
2023/10/31 00:48:22;;;;;;;0.90;0.90;;;16.30;78.00;15.30;94946.00;;;;5034217;28;20247;-77
2023/10/31 00:50:49;;;;;;;0.80;0.80;;;16.30;78.00;15.30;94939.00;;;;5034804;28;20229;-77
2023/10/31 00:53:17;;;;;;;0.80;0.80;;;16.30;78.20;15.30;94945.00;;;;5031260;28;20229;-77
2023/10/31 00:55:45;;;;;;;0.77;0.77;;;16.20;78.10;15.20;94945.00;;;;5020610;28;20202;-77
2023/10/31 00:58:12;;;;;;;0.70;0.70;;;16.20;78.10;15.20;94949.00;;;;5029518;28;20233;-78
2023/10/31 01:00:40;;;;;;;0.60;0.60;;;16.20;77.30;15.20;94946.00;;;;5015582;28;20233;-78
2023/10/31 01:03:07;;;;;;;0.40;0.40;;;16.10;78.20;15.20;94948.00;;;;5015307;28;20671;-78
2023/10/31 01:05:34;;;;;;;0.83;0.40;;;16.10;78.30;15.20;94938.00;;;;5015550;28;20221;-78
2023/10/31 01:08:02;;;;;;;0.37;0.37;;;16.10;78.30;15.20;94936.00;;;;5029904;28;20213;-78
2023/10/31 01:10:30;;;;;;;0.83;0.40;;;16.10;78.20;15.10;94934.00;;;;5033385;28;20233;-78
2023/10/31 01:12:58;;;;;;;0.33;0.30;;;16.00;78.00;15.10;94946.00;;;;5033450;28;20213;-78
2023/10/31 01:15:25;;;;;;;0.60;0.20;;;16.00;78.00;15.10;94949.00;;;;5033698;28;20216;-78
2023/10/31 01:17:52;;;;;;;0.40;0.23;;;16.00;78.10;15.00;94946.00;;;;5033967;28;20208;-78
2023/10/31 01:20:20;;;;;;;0.30;0.30;;;16.00;78.30;15.00;94953.00;;;;5032423;28;20252;-78
2023/10/31 01:22:47;;;;;;;0.20;0.20;;;15.90;78.20;15.00;94955.00;;;;5015871;28;20626;-78
2023/10/31 01:25:14;;;;;;;0.27;0.20;;;15.90;78.10;15.00;94948.00;;;;5029126;28;20223;-80
2023/10/31 01:27:43;;;;;;;0.23;0.10;;;15.90;78.00;14.90;94959.00;;;;5015348;28;20209;-78
2023/10/31 01:30:13;;;;;;;0.00;0.00;;;15.90;78.00;14.90;94962.00;;;;5031887;28;20225;-78
2023/10/31 01:32:40;;;;;;;0.10;0.10;;;15.90;78.20;14.90;94962.00;;;;4998441;28;20296;-78
2023/10/31 01:35:08;;;;;;;0.87;0.20;;;15.80;78.10;14.80;94976.00;;;;5031707;28;20211;-79
2023/10/31 01:37:35;;;;;;;0.10;0.10;;;15.80;78.00;14.80;94969.00;;;;5014305;28;20215;-78
2023/10/31 01:40:02;;;;;;;0.13;0.13;;;15.80;78.00;14.80;94958.00;;;;5013885;28;20233;-79
2023/10/31 01:42:29;;;;;;;0.10;0.10;;;15.70;77.70;14.70;94958.00;;;;5032032;28;20206;-78
2023/10/31 01:44:58;;;;;;;0.10;0.10;;;15.70;78.50;14.70;94964.00;;;;5016360;28;20550;-79
2023/10/31 01:47:25;;;;;;;0.30;0.20;;;15.60;77.90;14.60;94972.00;;;;5033431;28;20213;-78
2023/10/31 01:49:54;;;;;;;0.20;0.10;;;15.60;78.90;14.60;94970.00;;;;5027156;28;20236;-79
2023/10/31 01:52:21;;;;;;;0.10;0.10;;;15.60;78.30;14.60;94972.00;;;;5012120;28;20264;-78
2023/10/31 01:54:49;;;;;;;0.10;0.10;;;15.60;78.40;14.60;94980.00;;;;5030276;28;20209;-79
2023/10/31 01:57:16;;;;;;;0.20;0.20;;;15.50;78.50;14.60;94969.00;;;;5032937;28;20216;-79
2023/10/31 01:59:43;;;;;;;0.10;0.10;;;15.50;78.40;14.60;94966.00;;;;5033590;28;20233;-79
2023/10/31 02:02:12;;;;;;;0.20;0.20;;;15.50;78.30;14.60;94972.00;;;;5032872;28;20205;-78
2023/10/31 02:04:39;;;;;;;0.10;0.10;;;15.50;78.40;14.50;94971.00;;;;5033595;28;20255;-78
2023/10/31 02:07:07;;;;;;;0.20;0.20;;;15.40;78.20;14.50;94967.00;;;;5015320;28;20201;-78
2023/10/31 02:09:34;;;;;;;0.20;0.20;;;15.40;78.10;14.50;94971.00;;;;5032745;28;20968;-79
2023/10/31 02:12:01;;;;;;;0.10;0.10;;;15.40;78.30;14.50;94962.00;;;;5015585;28;20197;-77
2023/10/31 02:14:29;;;;;;;0.10;0.10;;;15.40;78.20;14.50;94968.00;;;;5033124;28;20577;-79
2023/10/31 02:16:56;;;;;;;0.00;0.00;;;15.40;78.30;14.50;94980.00;;;;4980959;28;20289;-78
2023/10/31 02:19:25;;;;;;;0.10;0.10;;;15.40;78.40;14.50;94992.00;;;;5014120;28;20316;-77
2023/10/31 02:21:53;;;;;;;0.70;0.10;;;15.40;78.50;14.50;94991.00;;;;5032211;28;20288;-77
2023/10/31 02:24:21;;;;;;;0.07;0.03;;;15.40;78.60;14.50;94998.00;;;;5028926;28;20201;-78
2023/10/31 02:26:48;;;;;;;0.00;0.00;;;15.40;78.50;14.40;94992.00;;;;5013838;28;20204;-78
2023/10/31 02:29:15;;;;;;;0.10;0.10;;;15.40;78.30;14.40;94986.00;;;;5030847;28;20225;-78
2023/10/31 02:31:42;;;;;;;0.10;0.10;;;15.30;78.20;14.40;94983.00;;;;5022480;28;20207;-78
2023/10/31 02:34:09;;;;;;;1.37;0.10;;;15.30;78.10;14.40;94992.00;;;;5029596;28;20259;-78
2023/10/31 02:36:38;;;;;;;0.00;0.00;;;15.30;78.20;14.40;94992.00;;;;5031051;28;20227;-77
2023/10/31 02:39:07;;;;;;;0.00;0.00;;;15.30;78.20;14.30;94995.00;;;;5031734;28;20217;-78
2023/10/31 02:41:34;;;;;;;0.10;0.10;;;15.30;78.50;14.40;95002.00;;;;5031089;28;20201;-78
2023/10/31 02:44:02;;;;;;;0.00;0.00;;;15.30;78.50;14.30;95014.00;;;;5015609;28;20212;-79
2023/10/31 02:46:29;;;;;;;0.10;0.10;;;15.30;78.50;14.30;95027.00;;;;5007224;28;20305;-79
2023/10/31 02:48:56;;;;;;;0.00;0.00;;;15.30;78.50;14.30;95018.00;;;;5032580;28;20229;-78
2023/10/31 02:51:23;;;;;;;0.07;0.07;;;15.30;78.60;14.30;95013.00;;;;5014871;28;20300;-78
2023/10/31 02:53:50;;;;;;;0.07;0.07;;;15.20;79.30;14.30;95015.00;;;;5012970;28;20201;-78
2023/10/31 02:56:20;;;;;;;0.23;0.10;;;15.30;78.60;14.30;95005.00;;;;5015219;28;20208;-79
2023/10/31 02:58:47;;;;;;;0.10;0.10;;;15.30;78.50;14.30;95001.00;;;;5032439;28;20213;-78
2023/10/31 03:01:14;;;;;;;0.00;0.00;;;15.30;78.40;14.30;94995.00;;;;5031076;28;20224;-78
2023/10/31 03:03:42;;;;;;;0.00;0.00;;;15.30;78.50;14.30;95004.00;;;;5033037;28;20229;-82
2023/10/31 03:06:09;;;;;;;0.00;0.00;;;15.30;78.30;14.30;94997.00;;;;5012115;28;20682;-79
2023/10/31 03:08:36;;;;;;;0.00;0.00;;;15.20;78.20;14.30;95011.00;;;;5023971;28;20659;-78
2023/10/31 03:11:04;;;;;;;0.00;0.00;;;15.20;78.40;14.30;95009.00;;;;5014862;28;20213;-79
2023/10/31 03:13:33;;;;;;;0.00;0.00;;;15.30;78.60;14.30;94997.00;;;;5015578;28;20292;-79
2023/10/31 03:16:00;;;;;;;0.00;0.00;;;15.30;78.60;14.30;95000.00;;;;5033029;28;20296;-78
2023/10/31 03:18:29;;;;;;;0.10;0.07;;;15.30;78.60;14.30;95011.00;;;;5015093;28;20632;-79
2023/10/31 03:20:56;;;;;;;0.03;0.03;;;15.30;78.70;14.30;95020.00;;;;5013676;28;20233;-78
2023/10/31 03:23:23;;;;;;;0.27;0.17;;;15.30;78.70;14.30;95021.00;;;;5029878;28;20582;-79
2023/10/31 03:25:50;;;;;;;0.00;0.00;;;15.20;78.70;14.30;95019.00;;;;5018955;28;20316;-78
2023/10/31 03:28:23;;;;;;;0.00;0.00;;;15.20;78.70;14.30;95019.00;;;;5001569;28;20598;-78
2023/10/31 03:30:52;;;;;;;0.40;0.10;;;15.20;78.70;14.30;95027.00;;;;5002301;28;20316;-79
2023/10/31 03:33:19;;;;;;;0.07;0.00;;;15.20;78.60;14.30;95029.00;;;;5015879;28;20216;-78
2023/10/31 03:35:47;;;;;;;0.40;0.10;;;15.20;78.50;14.30;95026.00;;;;5018414;28;20315;-78
2023/10/31 03:38:14;;;;;;;0.63;0.10;;;15.20;78.50;14.30;95044.00;;;;5038191;28;20212;-78
2023/10/31 03:40:42;;;;;;;0.00;0.00;;;15.20;78.60;14.30;95049.00;;;;5011812;28;20236;-79
2023/10/31 03:43:09;;;;;;;0.10;0.10;;;15.20;78.60;14.30;95045.00;;;;5038247;28;20403;-78
2023/10/31 03:45:36;;;;;;;0.00;0.00;;;15.20;79.40;14.30;95031.00;;;;5038694;28;20205;-78
2023/10/31 03:48:04;;;;;;;0.43;0.10;;;15.20;78.50;14.30;95024.00;;;;5038735;28;20221;-78
2023/10/31 03:50:31;;;;;;;0.00;0.00;;;15.20;78.40;14.30;95029.00;;;;5039294;28;20766;-79
2023/10/31 03:52:59;;;;;;;0.27;0.03;;;15.20;78.40;14.30;95034.00;;;;5040694;28;20205;-77
2023/10/31 03:55:26;;;;;;;0.13;0.00;;;15.30;78.50;14.30;95039.00;;;;5005401;28;20698;-78
2023/10/31 03:57:53;;;;;;;0.13;0.10;;;15.30;78.40;14.30;95038.00;;;;5036879;28;20228;-78
2023/10/31 04:00:20;;;;;;;0.80;0.33;;;15.20;78.50;14.30;95030.00;;;;5036953;28;20237;-78
2023/10/31 04:02:48;;;;;;;0.00;0.00;;;15.20;78.50;14.30;95026.00;;;;5035115;28;20684;-79
2023/10/31 04:05:17;;;;;;;0.00;0.00;;;15.20;78.40;14.30;95033.00;;;;5017405;28;20216;-79
2023/10/31 04:07:45;;;;;;;0.00;0.00;;;15.30;78.50;14.30;95046.00;;;;4996196;28;20690;-79
2023/10/31 04:10:12;;;;;;;0.10;0.03;;;15.30;78.50;14.30;95051.00;;;;5032743;28;20225;-79
2023/10/31 04:12:40;;;;;;;0.00;0.00;;;15.30;78.40;14.40;95056.00;;;;5016889;28;20232;-78
2023/10/31 04:15:09;;;;;;;0.73;0.10;;;15.30;78.20;14.40;95058.00;;;;5033945;28;20288;-79
2023/10/31 04:17:36;;;;;;;0.93;0.40;;;15.30;78.10;14.40;95071.00;;;;5033647;28;20205;-79
2023/10/31 04:20:05;;;;;;;0.40;0.10;;;15.30;78.20;14.40;95071.00;;;;5015803;28;20697;-78
2023/10/31 04:22:33;;;;;;;0.00;0.00;;;15.30;78.30;14.40;95058.00;;;;5025067;28;20209;-79
2023/10/31 04:25:01;;;;;;;0.10;0.10;;;15.30;78.30;14.40;95064.00;;;;5023966;28;20211;-79
2023/10/31 04:27:28;;;;;;;0.07;0.03;;;15.30;78.30;14.40;95068.00;;;;5033141;28;20197;-78
2023/10/31 04:29:55;;;;;;;0.10;0.10;;;15.30;78.90;14.40;95081.00;;;;5033228;28;20217;-77
2023/10/31 04:32:22;;;;;;;0.03;0.03;;;15.30;78.10;14.40;95081.00;;;;5015869;28;20205;-79
2023/10/31 04:34:50;;;;;;;0.40;0.00;;;15.30;78.60;14.40;95079.00;;;;5033836;28;20717;-78
2023/10/31 04:37:17;;;;;;;0.30;0.10;;;15.30;77.80;14.40;95080.00;;;;5026563;28;20209;-78
2023/10/31 04:39:46;;;;;;;0.17;0.10;;;15.30;77.90;14.40;95076.00;;;;5001170;28;20229;-79
2023/10/31 04:42:13;;;;;;;0.10;0.10;;;15.30;77.90;14.40;95096.00;;;;5034435;28;20197;-78
2023/10/31 04:44:41;;;;;;;0.13;0.10;;;15.30;77.90;14.40;95103.00;;;;5034394;28;20685;-78
2023/10/31 04:47:08;;;;;;;0.17;0.10;;;15.30;77.80;14.40;95107.00;;;;5034665;28;20287;-79
2023/10/31 04:49:36;;;;;;;0.20;0.20;;;15.30;77.80;14.40;95101.00;;;;5034340;28;20304;-78
2023/10/31 04:52:05;;;;;;;0.20;0.10;;;15.30;77.70;14.40;95103.00;;;;5034253;28;20208;-79
2023/10/31 04:54:32;;;;;;;0.10;0.10;;;15.30;77.90;14.40;95109.00;;;;5031944;28;20201;-78
2023/10/31 04:57:01;;;;;;;0.77;0.20;;;15.30;78.10;14.40;95105.00;;;;5034418;28;20646;-79
2023/10/31 04:59:28;;;;;;;0.20;0.17;;;15.40;78.20;14.40;95102.00;;;;5016535;28;20660;-79
2023/10/31 05:01:55;;;;;;;0.10;0.10;;;15.30;78.10;14.40;95101.00;;;;5034113;28;20228;-78
2023/10/31 05:04:22;;;;;;;0.30;0.17;;;15.30;78.00;14.40;95101.00;;;;5034009;28;20296;-78
2023/10/31 05:06:50;;;;;;;0.10;0.10;;;15.30;78.10;14.40;95104.00;;;;5033989;28;20690;-78
2023/10/31 05:09:17;;;;;;;0.17;0.10;;;15.40;78.20;14.40;95104.00;;;;5032153;28;20310;-78
2023/10/31 05:11:45;;;;;;;0.10;0.10;;;15.40;78.30;14.40;95096.00;;;;5033489;28;20581;-78
2023/10/31 05:14:13;;;;;;;0.20;0.13;;;15.40;78.30;14.40;95098.00;;;;5032397;28;20201;-77
2023/10/31 05:16:42;;;;;;;0.40;0.20;;;15.40;78.40;14.40;95101.00;;;;4998329;28;20212;-78
2023/10/31 05:19:09;;;;;;;0.20;0.20;;;15.40;78.40;14.50;95096.00;;;;5032200;28;20221;-78
2023/10/31 05:21:36;;;;;;;0.13;0.13;;;15.40;78.30;14.50;95107.00;;;;5013814;28;20597;-78
2023/10/31 05:24:05;;;;;;;0.67;0.40;;;15.40;78.40;14.50;95114.00;;;;5028390;28;20201;-77
2023/10/31 05:26:32;;;;;;;0.10;0.10;;;15.40;78.50;14.50;95117.00;;;;5014539;28;20209;-77
2023/10/31 05:28:59;;;;;;;0.20;0.20;;;15.40;78.50;14.50;95117.00;;;;5015469;28;20221;-78
2023/10/31 05:31:28;;;;;;;0.17;0.17;;;15.40;78.60;14.50;95119.00;;;;5015894;28;20233;-78
2023/10/31 05:33:55;;;;;;;0.20;0.20;;;15.40;78.60;14.50;95126.00;;;;5033893;28;20216;-78
2023/10/31 05:36:25;;;;;;;0.20;0.20;;;15.50;78.70;14.50;95123.00;;;;5033729;28;20288;-77
2023/10/31 05:38:52;;;;;;;0.97;0.40;;;15.40;78.60;14.50;95118.00;;;;5016283;28;20205;-77
2023/10/31 05:41:20;;;;;;;0.33;0.33;;;15.40;78.60;14.50;95121.00;;;;5016077;28;20232;-78
2023/10/31 05:43:47;;;;;;;0.33;0.33;;;15.50;78.80;14.50;95128.00;;;;5016130;28;20201;-78
2023/10/31 05:46:15;;;;;;;0.33;0.30;;;15.40;78.80;14.50;95132.00;;;;5015979;28;20577;-78
2023/10/31 05:48:46;;;;;;;0.43;0.43;;;15.50;79.00;14.50;95150.00;;;;5015781;28;20217;-78
2023/10/31 05:51:14;;;;;;;0.50;0.40;;;15.50;78.90;14.50;95149.00;;;;5033231;28;20681;-78
2023/10/31 05:53:43;;;;;;;0.30;0.30;;;15.50;78.90;14.50;95158.00;;;;5030681;28;20233;-77
2023/10/31 05:56:13;;;;;;;0.50;0.50;;;15.50;78.90;14.50;95159.00;;;;5015336;28;20212;-78
2023/10/31 05:58:40;;;;;;;0.20;0.20;;;15.50;78.90;14.50;95165.00;;;;5032891;28;20212;-78
2023/10/31 06:01:07;;;;;;;0.67;0.30;;;15.50;79.50;14.50;95160.00;;;;5015645;28;20248;-77
2023/10/31 06:03:35;;;;;;;0.30;0.30;;;15.50;78.90;14.50;95168.00;;;;5033065;28;20255;-78
2023/10/31 06:06:04;;;;;;;0.27;0.20;;;15.50;78.90;14.50;95167.00;;;;5031908;28;20213;-77
2023/10/31 06:08:32;;;;;;;0.77;0.50;;;15.50;78.80;14.50;95174.00;;;;4998501;28;20210;-78
2023/10/31 06:11:00;;;;;;;0.40;0.40;;;15.50;78.70;14.50;95179.00;;;;5031631;28;20288;-77
2023/10/31 06:13:28;;;;;;;1.37;0.40;;;15.50;78.70;14.50;95190.00;;;;5005756;28;20703;-78
2023/10/31 06:15:55;;;;;;;0.57;0.40;;;15.40;78.70;14.50;95192.00;;;;5031234;28;20213;-78
2023/10/31 06:18:23;;;;;;;1.33;0.23;;;15.40;78.70;14.50;95202.00;;;;5031014;28;20209;-76
2023/10/31 06:20:51;;;;;;;0.53;0.53;;;15.40;78.70;14.40;95203.00;;;;5024991;28;20277;-78
2023/10/31 06:23:19;;;;;;;1.33;0.30;;;15.40;78.40;14.40;95203.00;;;;5009108;28;20210;-77
2023/10/31 06:25:47;;;;;;;1.03;0.33;;;15.40;78.30;14.40;95198.00;;;;5032456;28;20641;-78
2023/10/31 06:28:14;;;;;;;0.40;0.40;;;15.40;78.60;14.40;95198.00;;;;5033182;28;20201;-77
2023/10/31 06:30:42;;;;;;;0.50;0.30;;;15.40;78.80;14.40;95197.00;;;;5033204;28;20235;-77
2023/10/31 06:33:10;;;;;;;0.43;0.30;;;15.40;78.90;14.40;95194.00;;;;5032580;28;20212;-77
2023/10/31 06:35:37;;;;;;;0.40;0.40;;;15.40;79.10;14.40;95202.00;;;;5033431;28;20287;-77
2023/10/31 06:38:04;;;;;;;0.33;0.33;;;15.30;79.10;14.40;95192.00;;;;5033047;28;20227;-77
2023/10/31 06:40:33;;;;;;;1.03;0.30;;;15.30;79.10;14.40;95198.00;;;;5033810;28;20694;-78
2023/10/31 06:43:00;;;;;;;2.00;0.63;;;15.30;79.10;14.40;95213.00;;;;5034720;28;20220;-78
2023/10/31 06:45:28;;;;;;;0.50;0.50;;;15.30;79.20;14.40;95224.00;;;;5022373;28;20292;-78
2023/10/31 06:47:55;;;;;;;0.80;0.80;;;15.30;79.30;14.40;95217.00;;;;5037574;28;20209;-77
2023/10/31 06:50:23;;;;;;;0.43;0.40;;;15.30;79.20;14.30;95207.00;;;;5036290;28;20236;-78
2023/10/31 06:52:50;;;;;;;0.70;0.50;;;15.30;79.10;14.30;95205.00;;;;5015351;28;20209;-79
2023/10/31 06:55:17;;;;;;;0.70;0.40;;;15.30;79.30;14.30;95206.00;;;;5030340;28;20213;-78
2023/10/31 06:57:46;;;;;;;0.50;0.50;;;15.20;79.40;14.30;95196.00;;;;5031395;28;20582;-78
2023/10/31 07:00:14;;;;;;;0.53;0.53;;;15.20;79.70;14.30;95204.00;;;;5013724;28;20231;-79
2023/10/31 07:02:41;;;;;;;0.30;0.30;;;15.20;79.60;14.30;95198.00;;;;5014361;28;20292;-79
2023/10/31 07:05:09;;;;;;;0.67;0.30;;;15.20;79.60;14.30;95205.00;;;;5031521;28;20296;-79
2023/10/31 07:07:36;;;;;;;0.40;0.40;;;15.20;79.50;14.30;95214.00;;;;5026103;28;20247;-78
2023/10/31 07:10:04;;;;;;;0.40;0.40;;;15.20;79.60;14.30;95227.00;;;;5030635;28;20217;-79
2023/10/31 07:12:31;;;;;;;0.93;0.60;;;15.20;79.40;14.20;95223.00;;;;5029714;28;20201;-79
2023/10/31 07:15:00;;;;;;;0.33;0.30;;;15.20;79.50;14.20;95229.00;;;;5030135;28;20260;-79
2023/10/31 07:17:27;;;;;;;0.30;0.30;;;15.20;79.50;14.20;95234.00;;;;5012548;28;20205;-78
2023/10/31 07:19:55;;;;;;;1.13;0.50;;;15.10;79.50;14.20;95242.00;;;;5030347;28;20221;-78
2023/10/31 07:22:24;;;;;;;0.70;0.70;;;15.20;79.50;14.20;95238.00;;;;5022637;28;20226;-78
2023/10/31 07:24:51;;;;;;;1.30;0.40;;;15.10;79.30;14.20;95249.00;;;;5029572;28;20577;-78
2023/10/31 07:27:19;;;;;;;0.67;0.50;;;15.10;79.40;14.20;95249.00;;;;4998385;28;20208;-79
2023/10/31 07:29:46;;;;;;;1.10;0.40;;;15.10;79.50;14.20;95249.00;;;;5032487;28;20221;-78
2023/10/31 07:32:15;;;;;;;0.43;0.43;;;15.10;79.40;14.20;95241.00;;;;4998440;28;20618;-79
2023/10/31 07:34:43;;;;;;;0.70;0.50;;;15.10;79.50;14.20;95245.00;;;;5032215;28;20201;-78
2023/10/31 07:37:11;;;;;;;0.53;0.50;;;15.10;79.70;14.20;95241.00;;;;5032092;28;20205;-79
2023/10/31 07:39:38;;;;;;;0.90;0.60;;;15.10;79.90;14.20;95232.00;;;;5031892;28;20225;-79
2023/10/31 07:42:06;;;;;;;0.70;0.50;;;15.10;79.90;14.20;95234.00;;;;5013880;28;20232;-79
2023/10/31 07:44:34;;;;;;;0.83;0.60;;;15.10;79.90;14.20;95225.00;;;;4998617;28;20209;-79
2023/10/31 07:47:01;;;;;;;0.97;0.80;;;15.10;79.90;14.20;95220.00;;;;5032169;28;20233;-79
2023/10/31 07:49:29;;;;;;;2.47;0.50;;;15.10;79.80;14.20;95216.00;;;;5031938;28;20217;-78
2023/10/31 07:51:57;;;;;;;0.50;0.50;;;15.10;79.70;14.20;95225.00;;;;5031382;28;20292;-78
2023/10/31 07:54:24;;;;;;;0.57;0.57;;;15.10;79.80;14.20;95232.00;;;;5028600;28;20209;-78
2023/10/31 07:56:51;;;;;;;0.70;0.70;;;15.10;80.60;14.30;95240.00;;;;5032212;28;20227;-78
2023/10/31 07:59:18;;;;;;;2.13;0.53;;;15.20;80.10;14.30;95245.00;;;;5031497;28;20241;-78
2023/10/31 08:01:47;;;;;;;0.50;0.50;;;15.10;80.10;14.30;95258.00;;;;5013380;28;20221;-78
2023/10/31 08:04:17;;;;;;;0.30;0.30;;;15.20;80.10;14.30;95257.00;;;;5005242;28;20202;-83
2023/10/31 08:06:46;;;;;;;0.50;0.50;;;15.20;80.00;14.30;95251.00;;;;5002297;28;20718;-83
2023/10/31 08:09:13;;;;;;;1.20;0.60;;;15.20;80.20;14.30;95247.00;;;;5019082;28;20260;-82
2023/10/31 08:11:40;;;;;;;0.50;0.50;;;15.20;80.10;14.40;95247.00;;;;5019622;28;20204;-83
2023/10/31 08:14:07;;;;;;;0.80;0.60;;;15.30;80.10;14.40;95260.00;;;;5028416;28;20286;-82
2023/10/31 08:16:35;;;;;;;0.87;0.40;;;15.30;79.90;14.40;95269.00;;;;5029367;28;20201;-83
2023/10/31 08:19:03;;;;;;;0.37;0.27;;;15.30;79.60;14.40;95271.00;;;;5021288;28;20229;-82
2023/10/31 08:21:34;;;;;;;0.30;0.30;;;15.30;79.60;14.40;95293.00;;;;5019204;28;20225;-82
2023/10/31 08:24:04;;;;;;;1.90;0.50;;;15.30;79.50;14.40;95291.00;;;;5037828;28;20220;-84
2023/10/31 08:26:31;;;;;;;0.87;0.30;;;15.30;79.30;14.40;95298.00;;;;5020298;28;20267;-83
2023/10/31 08:28:59;;;;;;;0.60;0.60;;;15.30;79.20;14.40;95301.00;;;;5029421;28;20288;-83
2023/10/31 08:31:26;;;;;;;0.40;0.40;;;15.30;79.20;14.40;95299.00;;;;5018566;28;20293;-83
2023/10/31 08:33:54;;;;;;;2.10;1.90;;;15.30;78.90;14.40;95293.00;;;;5000325;28;20201;-83
2023/10/31 08:36:21;;;;;;;1.23;0.90;;;15.30;78.80;14.40;95317.00;;;;5028128;28;20856;-84
2023/10/31 08:38:49;;;;;;;1.90;0.63;;;15.30;78.80;14.40;95325.00;;;;5018535;28;20205;-83
2023/10/31 08:41:19;;;;;;;0.30;0.30;;;15.30;78.80;14.40;95336.00;;;;5007672;28;20232;-83
2023/10/31 08:43:47;;;;;;;0.60;0.40;;;15.30;78.40;14.40;95343.00;;;;5000790;28;20206;-83
2023/10/31 08:46:15;;;;;;;0.50;0.40;;;15.30;78.40;14.40;95361.00;;;;5019401;28;20798;-84
2023/10/31 08:48:42;;;;;;;1.50;0.60;;;15.30;78.30;14.40;95366.00;;;;5024989;28;20263;-83
2023/10/31 08:51:09;;;;;;;0.40;0.40;;;15.30;78.50;14.40;95375.00;;;;4997758;28;20232;-83
2023/10/31 08:53:36;;;;;;;0.73;0.40;;;15.30;78.70;14.40;95371.00;;;;5020089;28;20204;-83
2023/10/31 08:56:04;;;;;;;0.77;0.60;;;15.30;78.70;14.40;95377.00;;;;5008580;28;20205;-81
2023/10/31 08:58:33;;;;;;;1.03;0.40;;;15.30;78.50;14.40;95373.00;;;;5035403;28;20237;-82
2023/10/31 09:01:01;;;;;;;0.67;0.40;;;15.30;78.30;14.40;95370.00;;;;5004938;28;20209;-82
2023/10/31 09:03:28;;;;;;;1.27;0.50;;;15.30;78.30;14.40;95363.00;;;;5011708;28;20300;-83
2023/10/31 09:05:56;;;;;;;0.90;0.50;;;15.30;78.50;14.50;95361.00;;;;5008234;28;20198;-84
2023/10/31 09:08:23;;;;;;;0.20;0.20;;;15.30;78.40;14.50;95366.00;;;;5019944;28;20202;-83
2023/10/31 09:10:51;;;;;;;0.50;0.50;;;15.30;79.00;14.50;95368.00;;;;5035210;28;20675;-82
2023/10/31 09:13:18;;;;;;;1.03;0.27;;;15.40;78.40;14.50;95365.00;;;;5021338;28;20212;-82
2023/10/31 09:15:47;;;;;;;0.60;0.50;;;15.40;78.20;14.50;95371.00;;;;5020095;28;20212;-81
2023/10/31 09:18:14;;;;;;;1.10;0.80;;;15.40;77.80;14.50;95377.00;;;;5013030;28;20209;-84
2023/10/31 09:20:41;;;;;;;0.70;0.60;;;15.40;78.10;14.50;95383.00;;;;5042726;28;20317;-83
2023/10/31 09:23:08;;;;;;;0.70;0.60;;;15.40;78.00;14.50;95372.00;;;;5038166;28;20264;-83
2023/10/31 09:25:36;;;;;;;1.47;0.73;;;15.40;77.80;14.50;95375.00;;;;5038923;28;20264;-83
2023/10/31 09:28:03;;;;;;;1.23;0.40;;;15.40;77.70;14.50;95371.00;;;;5009994;28;20202;-81
2023/10/31 09:30:32;;;;;;;0.60;0.60;;;15.40;77.60;14.50;95370.00;;;;5035583;28;20228;-82
2023/10/31 09:33:00;;;;;;;1.47;0.63;;;15.40;77.60;14.50;95372.00;;;;5037967;28;20270;-81
2023/10/31 09:35:28;;;;;;;0.57;0.50;;;15.40;77.80;14.50;95373.00;;;;5043941;28;20217;-82
2023/10/31 09:37:55;;;;;;;0.87;0.63;;;15.40;77.70;14.60;95374.00;;;;5035099;28;20209;-82
2023/10/31 09:40:24;;;;;;;1.00;0.60;;;15.40;78.00;14.60;95382.00;;;;5032073;28;20249;-82
2023/10/31 09:42:53;;;;;;;0.77;0.73;;;15.50;77.80;14.60;95389.00;;;;5028480;28;20225;-82
2023/10/31 09:45:20;;;;;;;1.43;0.70;;;15.50;77.80;14.60;95388.00;;;;5006833;28;20312;-82
2023/10/31 09:47:47;;;;;;;0.90;0.90;;;15.50;77.60;14.60;95400.00;;;;5000597;28;20580;-81
2023/10/31 09:50:17;;;;;;;0.70;0.60;;;15.50;77.10;14.60;95400.00;;;;5016930;28;20281;-82
2023/10/31 09:52:46;;;;;;;0.60;0.60;;;15.50;76.70;14.60;95401.00;;;;5009057;28;20205;-83
2023/10/31 09:55:14;;;;;;;1.03;0.50;;;15.50;77.40;14.60;95403.00;;;;5022682;28;20283;-81
2023/10/31 09:57:42;;;;;;;1.00;0.80;;;15.50;76.90;14.70;95405.00;;;;5016321;28;20201;-83
2023/10/31 10:00:11;;;;;;;0.70;0.50;;;15.50;77.20;14.60;95407.00;;;;5032869;28;20308;-82
2023/10/31 10:02:38;;;;;;;0.60;0.60;;;15.60;77.00;14.60;95413.00;;;;5028499;28;20230;-82
2023/10/31 10:05:06;;;;;;;0.93;0.67;;;15.60;76.80;14.60;95416.00;;;;5021575;28;20288;-82
2023/10/31 10:07:37;;;;;;;3.07;1.27;;;15.60;76.70;14.60;95415.00;;;;5000537;28;20635;-82
2023/10/31 10:10:05;;;;;;;1.50;0.67;;;15.60;76.90;14.60;95408.00;;;;5015862;28;20229;-83
2023/10/31 10:12:33;;;;;;;1.37;0.60;;;15.60;77.00;14.60;95420.00;;;;5000442;28;20197;-84
2023/10/31 10:15:00;;;;;;;0.70;0.70;;;15.60;77.00;14.70;95427.00;;;;5025973;28;20288;-84
2023/10/31 10:17:27;;;;;;;1.53;0.60;;;15.60;76.80;14.60;95431.00;;;;5017011;28;20193;-83
2023/10/31 10:20:08;;;;;;;1.20;0.50;;;15.60;76.30;14.60;95444.00;;;;5030135;28;20244;-83
2023/10/31 10:22:42;;;;;;;0.57;0.50;;;15.60;76.10;14.60;95440.00;;;;5018954;28;20217;-83
2023/10/31 10:25:11;;;;;;;0.30;0.30;;;15.60;75.80;14.60;95445.00;;;;5014830;28;20194;-84
2023/10/31 10:27:40;;;;;;;1.33;0.70;;;15.60;75.90;14.60;95442.00;;;;5030806;28;20234;-83
2023/10/31 10:30:10;;;;;;;0.70;0.67;;;15.60;77.00;14.60;95438.00;;;;4997020;28;20225;-85
2023/10/31 10:32:37;;;;;;;0.47;0.40;;;15.60;76.00;14.60;95447.00;;;;4977366;28;20546;-84
2023/10/31 10:35:07;;;;;;;1.17;0.60;;;15.60;75.90;14.60;95447.00;;;;5026404;28;20208;-83
2023/10/31 10:37:40;;;;;;;1.50;0.47;;;15.60;75.80;14.60;95444.00;;;;4986246;28;20268;-83
2023/10/31 10:40:11;;;;;;;1.03;0.77;;;15.60;75.20;14.70;95446.00;;;;5033893;28;20604;-83
2023/10/31 10:42:47;;;;;;;0.53;0.50;;;15.60;75.60;14.60;95437.00;;;;5016129;28;20320;-82
2023/10/31 10:45:17;;;;;;;0.40;0.40;;;15.60;75.60;14.70;95433.00;;;;5023846;28;20210;-83
2023/10/31 10:47:49;;;;;;;0.60;0.53;;;15.60;75.60;14.70;95434.00;;;;5028708;28;20209;-82
2023/10/31 10:50:20;;;;;;;1.07;0.60;;;15.60;75.40;14.70;95439.00;;;;5017556;28;20225;-84
2023/10/31 10:53:01;;;;;;;2.17;1.10;;;15.60;75.50;14.70;95437.00;;;;5034640;28;20235;-83
2023/10/31 10:55:32;;;;;;;1.50;0.80;;;15.60;75.90;14.70;95437.00;;;;5016812;28;20662;-84
2023/10/31 10:58:06;;;;;;;0.70;0.60;;;15.60;76.10;14.70;95448.00;;;;4985481;28;20209;-83